createdAt,value
2023-01-13T00:00:44.785Z,85.43
2023-01-13T00:04:06.728Z,85.73
2023-01-13T00:07:27.987Z,85.46
2023-01-13T00:10:49.323Z,85.10
2023-01-13T00:14:10.592Z,85.37
2023-01-13T00:17:33.210Z,85.46
2023-01-13T00:21:01.934Z,85.45
2023-01-13T00:24:23.775Z,85.49
2023-01-13T00:27:45.451Z,85.77
2023-01-13T00:31:08.534Z,86.15
2023-01-13T00:34:31.743Z,86.38
2023-01-13T00:37:53.506Z,86.00
2023-01-13T00:41:17.212Z,86.10
2023-01-13T00:44:37.411Z,85.84
2023-01-13T00:47:58.536Z,84.96
2023-01-13T00:51:22.744Z,85.19
2023-01-13T00:54:44.510Z,84.72
2023-01-13T00:58:06.227Z,84.74
2023-01-13T01:01:27.397Z,84.69
2023-01-13T01:04:49.137Z,84.15
2023-01-13T01:08:12.301Z,84.64
2023-01-13T01:11:34.157Z,84.00
2023-01-13T01:14:55.636Z,84.09
2023-01-13T01:18:16.968Z,83.55
2023-01-13T01:21:39.005Z,83.89
2023-01-13T01:25:01.716Z,83.22
2023-01-13T01:28:23.413Z,83.74
2023-01-13T01:31:44.782Z,82.93
2023-01-13T01:35:07.627Z,83.36
2023-01-13T01:38:29.021Z,83.01
2023-01-13T01:42:09.329Z,83.30
2023-01-13T01:45:31.583Z,83.28
2023-01-13T01:48:52.944Z,83.72
2023-01-13T01:52:18.030Z,83.31
2023-01-13T01:55:40.592Z,83.63
2023-01-13T01:59:03.697Z,83.45
2023-01-13T02:02:25.624Z,82.96
2023-01-13T02:05:47.487Z,83.06
2023-01-13T02:09:09.665Z,82.75
2023-01-13T02:12:32.111Z,82.57
2023-01-13T02:16:01.025Z,82.75
2023-01-13T02:19:44.920Z,82.45
2023-01-13T02:24:22.087Z,82.16
2023-01-13T02:28:03.822Z,82.10
2023-01-13T02:31:45.017Z,81.59
2023-01-13T02:35:14.492Z,81.64
2023-01-13T02:38:39.667Z,80.84
2023-01-13T02:42:24.427Z,81.29
2023-01-13T02:45:52.765Z,81.08
2023-01-13T02:49:24.574Z,80.38
2023-01-13T02:52:51.296Z,80.37
2023-01-13T02:56:16.479Z,80.64
2023-01-13T02:59:40.192Z,81.18
2023-01-13T03:03:01.930Z,80.89
2023-01-13T03:06:37.877Z,81.38
2023-01-13T03:10:08.376Z,81.47
2023-01-13T03:13:47.039Z,81.03
2023-01-13T03:17:22.458Z,80.85
2023-01-13T03:20:50.487Z,80.87
2023-01-13T03:24:21.321Z,80.71
2023-01-13T03:27:50.059Z,81.35
2023-01-13T03:31:17.005Z,80.34
2023-01-13T03:34:45.956Z,81.01
2023-01-13T03:38:12.987Z,80.28
2023-01-13T03:41:41.469Z,80.18
2023-01-13T03:45:09.212Z,79.92
2023-01-13T03:48:35.409Z,79.99
2023-01-13T03:52:02.967Z,79.97
2023-01-13T03:55:31.137Z,79.40
2023-01-13T03:58:55.528Z,79.37
2023-01-13T04:02:24.043Z,79.36
2023-01-13T04:05:52.712Z,79.38
2023-01-13T04:09:22.074Z,78.87
2023-01-13T04:13:01.745Z,78.58
2023-01-13T04:16:24.981Z,78.18
2023-01-13T04:19:46.837Z,78.43
2023-01-13T04:23:08.698Z,78.64
2023-01-13T04:26:30.208Z,78.56
2023-01-13T04:29:51.361Z,78.13
2023-01-13T04:33:15.425Z,78.74
2023-01-13T04:36:37.275Z,78.59
2023-01-13T04:39:58.841Z,78.06
2023-01-13T04:43:20.183Z,78.15
2023-01-13T04:46:43.099Z,77.98
2023-01-13T04:50:06.910Z,78.17
2023-01-13T04:53:28.406Z,77.91
2023-01-13T04:56:49.766Z,77.25
2023-01-13T05:00:14.172Z,77.45
2023-01-13T05:03:35.654Z,77.47
2023-01-13T05:06:58.906Z,77.56
2023-01-13T05:10:23.653Z,76.88
2023-01-13T05:14:02.906Z,76.97
2023-01-13T05:17:26.341Z,76.98
2023-01-13T05:20:48.022Z,76.46
2023-01-13T05:24:40.087Z,76.78
2023-01-13T05:28:01.851Z,76.62
2023-01-13T05:31:23.143Z,76.62
2023-01-13T05:34:44.660Z,76.43
2023-01-13T05:38:06.026Z,76.86
2023-01-13T05:41:46.298Z,76.38
2023-01-13T05:45:08.793Z,76.69
2023-01-13T05:48:33.027Z,76.62
2023-01-13T05:51:54.422Z,76.17
2023-01-13T05:55:16.326Z,75.99
2023-01-13T05:58:39.224Z,76.51
2023-01-13T06:02:00.546Z,76.58
2023-01-13T06:05:22.251Z,76.37
2023-01-13T06:08:43.551Z,75.64
2023-01-13T06:12:05.599Z,76.43
2023-01-13T06:15:28.834Z,75.89
2023-01-13T06:18:50.711Z,76.62
2023-01-13T06:22:16.711Z,76.08
2023-01-13T06:25:43.751Z,75.93
2023-01-13T06:29:05.621Z,75.42
2023-01-13T06:32:33.467Z,76.11
2023-01-13T06:36:01.078Z,77.25
2023-01-13T06:39:26.120Z,77.21
2023-01-13T06:43:05.158Z,77.29
2023-01-13T06:46:27.077Z,77.27
2023-01-13T06:49:50.462Z,77.14
2023-01-13T06:53:11.966Z,77.01
2023-01-13T06:56:33.342Z,77.04
2023-01-13T06:59:55.155Z,76.96
2023-01-13T07:03:18.963Z,76.94
2023-01-13T07:06:44.054Z,76.99
2023-01-13T07:10:05.758Z,77.04
2023-01-13T07:13:50.404Z,77.09
2023-01-13T07:17:11.921Z,77.11
2023-01-13T07:20:33.919Z,77.31
2023-01-13T07:23:57.162Z,77.01
2023-01-13T07:27:19.097Z,77.10
2023-01-13T07:30:41.290Z,78.07
2023-01-13T07:34:03.189Z,77.97
2023-01-13T07:37:24.837Z,78.43
2023-01-13T07:40:47.917Z,78.18
2023-01-13T07:44:10.871Z,78.24
2023-01-13T07:47:32.518Z,78.38
2023-01-13T07:50:53.931Z,78.46
2023-01-13T07:54:15.734Z,78.41
2023-01-13T07:57:39.093Z,78.54
2023-01-13T08:01:01.090Z,78.54
2023-01-13T08:04:22.903Z,79.06
2023-01-13T08:07:44.615Z,79.03
2023-01-13T08:11:09.164Z,79.95
2023-01-13T08:14:32.366Z,79.64
2023-01-13T08:17:54.148Z,80.32
2023-01-13T08:21:16.930Z,80.18
2023-01-13T08:24:38.861Z,80.08
2023-01-13T08:28:01.204Z,80.48
2023-01-13T08:31:24.145Z,80.71
2023-01-13T08:34:45.809Z,81.63
2023-01-13T08:38:08.116Z,81.22
2023-01-13T08:41:47.450Z,81.36
2023-01-13T08:45:10.825Z,80.94
2023-01-13T08:48:34.530Z,81.11
2023-01-13T08:51:56.336Z,80.95
2023-01-13T08:55:18.299Z,80.45
2023-01-13T08:58:40.938Z,80.24
2023-01-13T09:02:03.541Z,79.59
2023-01-13T09:05:27.251Z,79.09
2023-01-13T09:08:49.111Z,78.50
2023-01-13T09:12:30.042Z,77.39
2023-01-13T09:15:52.325Z,76.91
2023-01-13T09:19:14.209Z,76.68
2023-01-13T09:22:37.647Z,76.94
2023-01-13T09:25:59.156Z,75.91
2023-01-13T09:29:21.700Z,75.18
2023-01-13T09:32:43.158Z,75.22
2023-01-13T09:36:04.395Z,75.43
2023-01-13T09:39:27.587Z,74.60
2023-01-13T09:43:13.302Z,74.36
2023-01-13T09:46:48.092Z,74.29
2023-01-13T09:50:25.073Z,74.43
2023-01-13T09:53:52.391Z,74.23
2023-01-13T09:57:17.016Z,74.02
2023-01-13T10:00:47.062Z,74.18
2023-01-13T10:04:12.715Z,73.83
2023-01-13T10:07:38.123Z,73.45
2023-01-13T10:11:21.713Z,73.58
2023-01-13T10:14:51.348Z,73.35
2023-01-13T10:18:19.383Z,72.95
2023-01-13T10:21:57.740Z,73.10
2023-01-13T10:25:43.587Z,72.40
2023-01-13T10:29:24.753Z,72.44
2023-01-13T10:32:51.478Z,72.25
2023-01-13T10:36:17.488Z,72.16
2023-01-13T10:39:44.796Z,71.72
2023-01-13T10:43:07.022Z,71.10
2023-01-13T10:46:29.988Z,71.31
2023-01-13T10:50:19.356Z,71.10
2023-01-13T10:53:51.700Z,71.48
2023-01-13T10:57:16.180Z,71.48
2023-01-13T11:00:38.146Z,71.59
2023-01-13T11:04:00.071Z,71.59
2023-01-13T11:07:29.872Z,71.66
2023-01-13T11:10:54.676Z,71.76
2023-01-13T11:14:36.761Z,72.22
2023-01-13T11:18:05.132Z,71.23
2023-01-13T11:21:32.869Z,71.31
2023-01-13T11:25:01.423Z,71.23
2023-01-13T11:28:38.516Z,70.75
2023-01-13T11:32:10.392Z,71.19
2023-01-13T11:35:37.020Z,71.21
2023-01-13T11:39:12.026Z,69.96
2023-01-13T11:42:41.299Z,69.97
2023-01-13T11:46:02.889Z,69.65
2023-01-13T11:49:28.280Z,69.23
2023-01-13T11:53:07.601Z,69.41
2023-01-13T11:56:42.434Z,68.76
2023-01-13T12:00:28.107Z,68.89
2023-01-13T12:03:54.755Z,68.37
2023-01-13T12:07:23.262Z,67.29
2023-01-13T12:10:56.886Z,66.83
2023-01-13T12:14:28.229Z,66.62
2023-01-13T12:18:05.240Z,66.81
2023-01-13T12:21:29.765Z,66.10
2023-01-13T12:24:56.259Z,66.88
2023-01-13T12:28:23.934Z,65.58
2023-01-13T12:31:48.481Z,66.27
2023-01-13T12:35:29.075Z,65.03
2023-01-13T12:38:55.965Z,64.40
2023-01-13T12:42:42.347Z,63.06
2023-01-13T12:46:45.384Z,63.02
2023-01-13T12:50:54.746Z,61.99
2023-01-13T12:54:53.850Z,62.26
2023-01-13T12:58:17.023Z,61.98
2023-01-13T13:01:39.064Z,61.64
2023-01-13T13:05:39.449Z,60.30
2023-01-13T13:09:04.344Z,60.41
2023-01-13T13:13:18.922Z,60.59
2023-01-13T13:16:49.902Z,60.76
2023-01-13T13:20:50.730Z,60.66
2023-01-13T13:24:12.511Z,58.77
2023-01-13T13:27:42.017Z,59.14
2023-01-13T13:31:25.788Z,58.86
2023-01-13T13:34:56.878Z,57.79
2023-01-13T13:38:47.438Z,57.51
2023-01-13T13:42:34.524Z,57.60
2023-01-13T13:46:13.454Z,57.43
2023-01-13T13:49:41.599Z,56.14
2023-01-13T13:53:07.165Z,55.38
2023-01-13T13:56:30.239Z,56.22
2023-01-13T13:59:55.643Z,55.84
2023-01-13T14:03:24.801Z,55.81
2023-01-13T14:06:56.342Z,56.37
2023-01-13T14:10:21.276Z,56.89
2023-01-13T14:13:42.702Z,55.66
2023-01-13T14:17:05.844Z,54.72
2023-01-13T14:20:29.060Z,55.82
2023-01-13T14:23:55.537Z,55.45
2023-01-13T14:27:18.960Z,55.75
2023-01-13T14:30:41.681Z,55.65
2023-01-13T14:34:32.572Z,56.26
2023-01-13T14:37:51.056Z,56.88
2023-01-13T14:41:20.122Z,56.87
2023-01-13T14:44:45.959Z,56.77
2023-01-13T14:48:10.274Z,56.59
2023-01-13T14:51:32.834Z,57.46
2023-01-13T14:54:55.823Z,57.26
2023-01-13T14:58:29.628Z,56.67
2023-01-13T15:01:52.163Z,57.12
2023-01-13T15:05:47.704Z,56.07
2023-01-13T15:09:13.145Z,56.01
2023-01-13T15:12:39.317Z,55.65
2023-01-13T15:16:04.575Z,56.15
2023-01-13T15:19:26.134Z,55.79
2023-01-13T15:22:47.631Z,55.41
2023-01-13T15:26:21.031Z,56.22
2023-01-13T15:29:42.656Z,55.34
2023-01-13T15:33:06.301Z,55.31
2023-01-13T15:36:29.710Z,55.63
2023-01-13T15:39:51.966Z,55.45
2023-01-13T15:43:33.474Z,54.66
2023-01-13T15:46:55.126Z,55.33
2023-01-13T15:50:20.837Z,54.26
2023-01-13T15:53:42.842Z,54.91
2023-01-13T15:57:04.780Z,54.58
2023-01-13T16:00:26.598Z,54.55
2023-01-13T16:03:48.127Z,54.31
2023-01-13T16:07:16.322Z,53.41
2023-01-13T16:10:37.645Z,53.52
2023-01-13T16:13:58.904Z,53.57
2023-01-13T16:17:22.528Z,53.74
2023-01-13T16:20:43.976Z,53.52
2023-01-13T16:24:07.070Z,53.75
2023-01-13T16:27:30.474Z,53.54
2023-01-13T16:30:52.787Z,52.93
2023-01-13T16:34:14.645Z,53.75
2023-01-13T16:37:36.296Z,53.96
2023-01-13T16:40:59.653Z,53.71
2023-01-13T16:44:20.966Z,54.11
2023-01-13T16:47:42.438Z,54.04
2023-01-13T16:51:05.033Z,53.92
2023-01-13T16:54:26.344Z,54.14
2023-01-13T16:57:49.667Z,54.34
2023-01-13T17:01:20.125Z,54.34
2023-01-13T17:04:41.605Z,54.14
2023-01-13T17:08:03.628Z,54.42
2023-01-13T17:11:25.523Z,54.36
2023-01-13T17:14:48.259Z,54.45
2023-01-13T17:18:09.622Z,54.64
2023-01-13T17:21:31.410Z,55.43
2023-01-13T17:24:53.287Z,55.17
2023-01-13T17:28:15.092Z,55.22
2023-01-13T17:31:38.222Z,55.70
2023-01-13T17:35:02.474Z,55.66
2023-01-13T17:38:24.086Z,56.08
2023-01-13T17:41:46.023Z,56.15
2023-01-13T17:45:09.175Z,56.18
2023-01-13T17:48:32.397Z,56.04
2023-01-13T17:51:53.690Z,56.57
2023-01-13T17:55:15.614Z,56.91
2023-01-13T17:58:37.607Z,57.40
2023-01-13T18:01:59.296Z,57.90
2023-01-13T18:05:22.705Z,58.01
2023-01-13T18:08:44.410Z,58.67
2023-01-13T18:12:06.338Z,59.23
2023-01-13T18:15:27.827Z,59.48
2023-01-13T18:18:51.413Z,59.84
2023-01-13T18:22:32.877Z,60.30
2023-01-13T18:26:12.022Z,60.38
2023-01-13T18:29:33.481Z,60.66
2023-01-13T18:32:55.434Z,60.85
2023-01-13T18:36:17.329Z,61.03
2023-01-13T18:39:40.751Z,61.48
2023-01-13T18:43:02.345Z,61.73
2023-01-13T18:46:24.160Z,62.17
2023-01-13T18:49:46.047Z,62.32
2023-01-13T18:53:08.047Z,62.26
2023-01-13T18:56:31.613Z,62.26
2023-01-13T18:59:53.111Z,62.27
2023-01-13T19:03:29.491Z,62.33
2023-01-13T19:06:52.365Z,62.10
2023-01-13T19:10:14.339Z,62.06
2023-01-13T19:13:37.909Z,61.32
2023-01-13T19:16:59.450Z,61.34
2023-01-13T19:20:22.345Z,61.51
2023-01-13T19:23:44.268Z,61.92
2023-01-13T19:27:06.133Z,61.84
2023-01-13T19:30:29.655Z,61.27
2023-01-13T19:33:51.410Z,61.35
2023-01-13T19:37:13.633Z,62.04
2023-01-13T19:40:35.436Z,61.47
2023-01-13T19:44:14.897Z,61.34
2023-01-13T19:47:40.521Z,61.25
2023-01-13T19:51:02.578Z,61.14
2023-01-13T19:54:24.554Z,61.21
2023-01-13T19:57:45.935Z,61.19
2023-01-13T20:01:09.829Z,61.26
2023-01-13T20:04:38.393Z,61.35
2023-01-13T20:08:00.230Z,61.39
2023-01-13T20:11:31.031Z,61.62
2023-01-13T20:14:52.972Z,61.56
2023-01-13T20:18:14.717Z,61.64
2023-01-13T20:21:39.723Z,61.56
2023-01-13T20:25:01.308Z,61.36
2023-01-13T20:28:23.848Z,61.09
2023-01-13T20:31:45.878Z,61.01
2023-01-13T20:35:08.514Z,61.34
2023-01-13T20:38:36.919Z,61.47
2023-01-13T20:42:16.101Z,61.06
2023-01-13T20:45:37.707Z,61.04
2023-01-13T20:48:59.483Z,61.43
2023-01-13T20:52:21.386Z,61.39
2023-01-13T20:55:44.172Z,61.50
2023-01-13T20:59:06.583Z,61.75
2023-01-13T21:02:28.011Z,61.74
2023-01-13T21:05:49.370Z,61.63
2023-01-13T21:09:11.309Z,61.43
2023-01-13T21:12:51.797Z,61.64
2023-01-13T21:16:13.347Z,61.69
2023-01-13T21:19:34.561Z,61.60
2023-01-13T21:22:56.033Z,61.72
2023-01-13T21:26:19.509Z,61.63
2023-01-13T21:29:44.509Z,61.74
2023-01-13T21:33:06.381Z,61.53
2023-01-13T21:36:29.415Z,61.74
2023-01-13T21:39:51.197Z,62.06
2023-01-13T21:43:31.309Z,62.05
2023-01-13T21:47:11.426Z,62.84
2023-01-13T21:50:32.987Z,63.52
2023-01-13T21:53:54.822Z,63.92
2023-01-13T21:57:16.548Z,63.72
2023-01-13T22:00:39.326Z,64.49
2023-01-13T22:04:14.190Z,64.85
2023-01-13T22:07:37.781Z,64.71
2023-01-13T22:11:00.162Z,64.96
2023-01-13T22:14:22.563Z,65.34
2023-01-13T22:17:45.639Z,64.88
2023-01-13T22:21:08.835Z,64.29
2023-01-13T22:24:30.541Z,63.83
2023-01-13T22:27:55.943Z,63.95
2023-01-13T22:31:20.964Z,63.62
2023-01-13T22:34:42.752Z,63.43
2023-01-13T22:38:05.766Z,63.74
2023-01-13T22:41:27.254Z,63.70
2023-01-13T22:44:48.970Z,63.41
2023-01-13T22:48:10.199Z,64.27
2023-01-13T22:51:32.012Z,64.51
2023-01-13T22:54:55.481Z,64.46
2023-01-13T22:58:17.391Z,64.28
2023-01-13T23:01:39.261Z,64.94
2023-01-13T23:05:00.965Z,65.78
2023-01-13T23:08:22.414Z,66.08
2023-01-13T23:11:47.746Z,66.37
2023-01-13T23:15:09.744Z,67.04
2023-01-13T23:18:31.035Z,67.79
2023-01-13T23:21:52.873Z,68.40
2023-01-13T23:25:14.116Z,67.85
2023-01-13T23:28:37.507Z,68.21
2023-01-13T23:31:59.170Z,67.85
2023-01-13T23:35:21.171Z,68.19
2023-01-13T23:38:43.011Z,68.16
2023-01-13T23:42:04.591Z,68.42
2023-01-13T23:45:27.744Z,67.73
2023-01-13T23:48:50.342Z,67.70
2023-01-13T23:52:12.163Z,67.76
2023-01-13T23:55:33.472Z,67.55
2023-01-13T23:58:56.350Z,66.92
